Time;durP1;ratioP1;P1;durP2;ratioP2;P2;SDS_P1;SDS_P2;PMS_P1;PMS_P2;Temp;Humidity;BMP_temperature;BMP_pressure;BME280_temperature;BME280_humidity;BME280_pressure;Samples;Min_cycle;Max_cycle;Signal;HPM_P1;HPM_P2
2022/06/17 00:00:14;;;;;;;;;;;12.50;99.90;;;;;;5061736;28;19924;-78
2022/06/17 00:02:40;;;;;;;;;;;12.50;99.90;;;;;;4998116;28;19920;-78
2022/06/17 00:05:05;;;;;;;;;;;12.50;99.90;;;;;;5032482;28;19924;-78
2022/06/17 00:07:31;;;;;;;;;;;12.40;99.90;;;;;;5034622;28;19917;-80
2022/06/17 00:09:57;;;;;;;;;;;12.40;99.90;;;;;;5020209;28;19916;-77
2022/06/17 00:12:22;;;;;;;;;;;12.40;99.90;;;;;;5025498;28;20380;-77
2022/06/17 00:17:32;;;;;;;;;;;12.40;99.90;;;;;;5047785;28;20020;-79
2022/06/17 00:19:57;;;;;;;;;;;12.30;99.90;;;;;;5046582;28;20003;-77
2022/06/17 00:22:25;;;;;;;;;;;12.30;99.90;;;;;;5005627;28;19916;-78
2022/06/17 00:24:52;;;;;;;;;;;12.30;99.90;;;;;;5004680;28;19917;-78
2022/06/17 00:27:20;;;;;;;;;;;12.30;99.90;;;;;;5051469;28;19920;-77
2022/06/17 00:29:46;;;;;;;;;;;12.30;99.90;;;;;;5016881;28;19924;-78
2022/06/17 00:32:11;;;;;;;;;;;12.30;99.90;;;;;;4997678;28;20339;-78
2022/06/17 00:34:37;;;;;;;;;;;12.30;99.90;;;;;;5008084;28;19925;-79
2022/06/17 00:37:03;;;;;;;;;;;12.30;99.90;;;;;;5017506;28;19917;-78
2022/06/17 00:39:34;;;;;;;;;;;12.30;99.90;;;;;;5061780;28;20011;-78
2022/06/17 00:42:10;;;;;;;;;;;12.30;99.90;;;;;;5053757;28;19928;-78
2022/06/17 00:44:36;;;;;;;;;;;12.30;99.90;;;;;;5028111;28;19924;-78
2022/06/17 00:47:06;;;;;;;;;;;12.30;99.90;;;;;;5051416;28;19925;-78
2022/06/17 00:49:39;;;;;;;;;;;12.30;99.90;;;;;;5051930;28;19932;-78
2022/06/17 00:52:07;;;;;;;;;;;12.30;99.90;;;;;;5026558;28;20420;-79
2022/06/17 00:54:40;;;;;;;;;;;12.30;99.90;;;;;;5055317;28;19928;-78
2022/06/17 00:57:20;;;;;;;;;;;12.30;99.90;;;;;;5022288;28;19930;-77
2022/06/17 00:59:59;;;;;;;;;;;12.40;99.90;;;;;;4996811;28;20335;-79
2022/06/17 01:02:33;;;;;;;;;;;12.40;99.90;;;;;;5024442;28;20618;-77
2022/06/17 01:05:00;;;;;;;;;;;12.40;99.90;;;;;;5027717;28;20031;-78
2022/06/17 01:07:27;;;;;;;;;;;12.50;99.90;;;;;;5026274;28;19924;-78
2022/06/17 01:10:02;;;;;;;;;;;12.50;99.90;;;;;;5018800;28;20019;-79
2022/06/17 01:12:46;;;;;;;;;;;12.50;99.90;;;;;;5050853;28;19917;-78
2022/06/17 01:15:18;;;;;;;;;;;12.50;99.90;;;;;;5017324;28;19977;-79
2022/06/17 01:17:46;;;;;;;;;;;12.50;99.90;;;;;;5003267;28;19957;-77
2022/06/17 01:20:12;;;;;;;;;;;12.50;99.90;;;;;;5009458;28;20430;-78
2022/06/17 01:22:51;;;;;;;;;;;12.50;99.90;;;;;;5030406;28;19983;-79
2022/06/17 01:25:22;;;;;;;;;;;12.50;99.90;;;;;;5060305;28;19996;-78
2022/06/17 01:28:02;;;;;;;;;;;12.50;99.90;;;;;;5030887;28;20282;-79
2022/06/17 01:30:39;;;;;;;;;;;12.50;99.90;;;;;;5005994;28;19917;-77
2022/06/17 01:33:04;;;;;;;;;;;12.40;99.90;;;;;;5033177;28;19924;-78
2022/06/17 01:35:33;;;;;;;;;;;12.40;99.90;;;;;;5039277;28;20020;-78
2022/06/17 01:37:59;;;;;;;;;;;12.40;99.90;;;;;;5017528;28;20294;-78
2022/06/17 01:40:28;;;;;;;;;;;12.40;99.90;;;;;;5050308;28;19927;-79
2022/06/17 01:42:54;;;;;;;;;;;12.40;99.90;;;;;;5034764;28;20008;-78
2022/06/17 01:45:21;;;;;;;;;;;12.40;99.90;;;;;;5042739;28;19921;-79
2022/06/17 01:47:48;;;;;;;;;;;12.40;99.90;;;;;;5053528;28;19917;-77
2022/06/17 01:50:17;;;;;;;;;;;12.40;99.90;;;;;;5024580;28;19918;-78
2022/06/17 01:52:50;;;;;;;;;;;12.40;99.90;;;;;;5026950;28;19963;-77
2022/06/17 01:55:18;;;;;;;;;;;12.50;99.90;;;;;;5022489;28;19975;-79
2022/06/17 01:57:54;;;;;;;;;;;12.40;99.90;;;;;;5032843;28;19936;-78
2022/06/17 02:00:22;;;;;;;;;;;12.40;99.90;;;;;;5032662;28;19920;-77
2022/06/17 02:02:59;;;;;;;;;;;12.40;99.90;;;;;;5018067;28;19917;-79
2022/06/17 02:05:26;;;;;;;;;;;12.30;99.90;;;;;;5023245;28;19932;-78
2022/06/17 02:07:54;;;;;;;;;;;12.30;99.90;;;;;;5028719;28;20382;-78
2022/06/17 02:10:21;;;;;;;;;;;12.30;99.90;;;;;;5066030;28;19920;-78
2022/06/17 02:12:48;;;;;;;;;;;12.30;99.90;;;;;;5052271;28;19953;-78
2022/06/17 02:15:14;;;;;;;;;;;12.30;99.90;;;;;;5039456;28;20000;-78
2022/06/17 02:17:43;;;;;;;;;;;12.20;99.90;;;;;;5025066;28;19975;-78
2022/06/17 02:20:09;;;;;;;;;;;12.20;99.90;;;;;;5023181;28;20367;-78
2022/06/17 02:22:35;;;;;;;;;;;12.20;99.90;;;;;;5016395;28;19917;-78
2022/06/17 02:25:03;;;;;;;;;;;12.10;99.90;;;;;;5064028;28;19917;-77
2022/06/17 02:27:29;;;;;;;;;;;12.10;99.90;;;;;;5023418;28;19925;-78
2022/06/17 02:29:56;;;;;;;;;;;12.10;99.90;;;;;;5013780;28;19960;-79
2022/06/17 02:32:22;;;;;;;;;;;12.00;99.90;;;;;;4990910;28;19918;-77
2022/06/17 02:35:00;;;;;;;;;;;12.00;99.90;;;;;;5035674;28;20004;-79
2022/06/17 02:37:26;;;;;;;;;;;12.00;99.90;;;;;;5032478;28;19921;-79
2022/06/17 02:39:54;;;;;;;;;;;11.90;99.90;;;;;;5051775;28;20382;-78
2022/06/17 02:42:21;;;;;;;;;;;11.90;99.90;;;;;;5016190;28;19930;-79
2022/06/17 02:44:48;;;;;;;;;;;11.90;99.90;;;;;;4998164;28;19917;-78
2022/06/17 02:47:14;;;;;;;;;;;11.90;99.90;;;;;;5025144;28;20278;-78
2022/06/17 02:49:42;;;;;;;;;;;11.80;99.90;;;;;;5015669;28;19925;-79
2022/06/17 02:52:12;;;;;;;;;;;11.80;99.90;;;;;;5022703;28;19917;-79
2022/06/17 02:54:42;;;;;;;;;;;11.80;99.90;;;;;;5046825;28;20006;-78
2022/06/17 02:57:09;;;;;;;;;;;11.70;99.90;;;;;;5012465;28;19921;-78
2022/06/17 02:59:36;;;;;;;;;;;11.80;99.90;;;;;;5015340;28;20302;-78
2022/06/17 03:02:10;;;;;;;;;;;11.70;99.90;;;;;;5031335;28;19924;-79
2022/06/17 03:04:37;;;;;;;;;;;11.70;99.90;;;;;;5000507;28;19924;-78
2022/06/17 03:07:08;;;;;;;;;;;11.60;99.90;;;;;;5040844;28;19925;-78
2022/06/17 03:09:36;;;;;;;;;;;12.00;99.90;;;;;;5025065;28;19966;-79
2022/06/17 03:12:15;;;;;;;;;;;11.60;99.90;;;;;;5018902;28;19928;-81
2022/06/17 03:15:04;;;;;;;;;;;11.70;99.90;;;;;;5018562;28;19922;-78
2022/06/17 03:17:32;;;;;;;;;;;11.70;99.90;;;;;;5048504;28;19947;-79
2022/06/17 03:20:00;;;;;;;;;;;11.70;99.90;;;;;;5048381;28;20287;-78
2022/06/17 03:22:27;;;;;;;;;;;12.00;99.90;;;;;;4995528;28;20331;-79
2022/06/17 03:24:57;;;;;;;;;;;11.90;99.90;;;;;;5012362;28;19921;-79
2022/06/17 03:27:34;;;;;;;;;;;12.00;99.90;;;;;;5011813;28;19928;-78
2022/06/17 03:30:02;;;;;;;;;;;12.20;99.90;;;;;;4986131;28;19960;-79
2022/06/17 03:32:30;;;;;;;;;;;12.30;99.90;;;;;;5021681;28;19917;-79
2022/06/17 03:34:56;;;;;;;;;;;12.30;99.90;;;;;;5031791;28;20386;-79
2022/06/17 03:37:30;;;;;;;;;;;12.50;99.90;;;;;;5065087;28;19959;-78
2022/06/17 03:40:05;;;;;;;;;;;12.60;99.90;;;;;;5030938;28;19966;-78
2022/06/17 03:42:48;;;;;;;;;;;12.70;99.90;;;;;;5047864;28;19917;-78
2022/06/17 03:45:14;;;;;;;;;;;12.80;99.90;;;;;;5015874;28;19949;-79
2022/06/17 03:48:02;;;;;;;;;;;12.80;99.90;;;;;;5022826;28;19964;-78
2022/06/17 03:50:32;;;;;;;;;;;12.90;99.90;;;;;;5014042;28;20000;-79
2022/06/17 03:53:00;;;;;;;;;;;13.00;99.90;;;;;;5014656;28;20298;-79
2022/06/17 03:55:27;;;;;;;;;;;13.00;99.90;;;;;;5027303;28;19920;-79
2022/06/17 03:57:54;;;;;;;;;;;13.10;99.90;;;;;;5060560;28;20413;-78
2022/06/17 04:00:26;;;;;;;;;;;13.20;99.90;;;;;;5047682;28;19939;-79
2022/06/17 04:02:52;;;;;;;;;;;13.30;99.90;;;;;;5042951;28;19920;-77
2022/06/17 04:05:20;;;;;;;;;;;13.40;99.90;;;;;;5034325;28;19924;-79
2022/06/17 04:07:47;;;;;;;;;;;13.60;99.90;;;;;;5018356;28;19917;-79
2022/06/17 04:10:17;;;;;;;;;;;13.80;99.90;;;;;;5034238;28;19924;-79
2022/06/17 04:12:46;;;;;;;;;;;13.90;99.90;;;;;;5016105;28;19920;-78
2022/06/17 04:15:30;;;;;;;;;;;14.10;99.90;;;;;;5067549;28;19921;-78
2022/06/17 04:17:55;;;;;;;;;;;14.30;99.90;;;;;;5031985;28;20373;-78
2022/06/17 04:20:40;;;;;;;;;;;14.50;99.90;;;;;;5014028;28;19975;-79
2022/06/17 04:23:07;;;;;;;;;;;14.60;99.90;;;;;;5014797;28;20323;-78
2022/06/17 04:25:39;;;;;;;;;;;14.80;99.90;;;;;;5013897;28;19917;-78
2022/06/17 04:28:08;;;;;;;;;;;14.80;99.90;;;;;;5047845;28;20691;-77
2022/06/17 04:30:40;;;;;;;;;;;15.00;99.90;;;;;;4997736;28;19952;-78
2022/06/17 04:33:12;;;;;;;;;;;15.00;99.90;;;;;;5013847;28;19925;-78
2022/06/17 04:35:37;;;;;;;;;;;15.00;99.90;;;;;;5033935;28;20366;-78
2022/06/17 04:38:09;;;;;;;;;;;15.10;99.90;;;;;;5019197;28;20118;-78
2022/06/17 04:40:37;;;;;;;;;;;15.20;99.90;;;;;;5033309;28;19921;-78
2022/06/17 04:43:05;;;;;;;;;;;15.30;99.90;;;;;;5033926;28;19963;-79
2022/06/17 04:45:31;;;;;;;;;;;15.40;99.90;;;;;;5027643;28;19943;-78
2022/06/17 04:47:57;;;;;;;;;;;15.50;99.90;;;;;;5046561;28;19917;-78
2022/06/17 04:50:25;;;;;;;;;;;15.50;99.90;;;;;;5017379;28;19917;-78
2022/06/17 04:52:51;;;;;;;;;;;15.70;99.90;;;;;;5030461;28;19921;-77
2022/06/17 04:55:17;;;;;;;;;;;15.70;99.90;;;;;;5014328;28;20325;-79
2022/06/17 04:57:42;;;;;;;;;;;15.80;99.90;;;;;;5046747;28;19962;-78
2022/06/17 05:00:19;;;;;;;;;;;15.80;99.90;;;;;;5027879;28;19924;-79
2022/06/17 05:02:45;;;;;;;;;;;15.90;99.90;;;;;;5060829;28;20373;-78
2022/06/17 05:05:15;;;;;;;;;;;15.90;99.90;;;;;;5033739;28;19921;-79
2022/06/17 05:07:43;;;;;;;;;;;15.90;99.90;;;;;;5053231;28;20365;-78
2022/06/17 05:10:13;;;;;;;;;;;15.90;99.90;;;;;;5047639;28;19917;-79
2022/06/17 05:12:44;;;;;;;;;;;15.90;99.90;;;;;;5046833;28;20199;-77
2022/06/17 05:15:11;;;;;;;;;;;15.90;99.90;;;;;;5024913;28;19975;-79
2022/06/17 05:17:43;;;;;;;;;;;15.90;99.90;;;;;;5053393;28;19923;-79
2022/06/17 05:20:16;;;;;;;;;;;15.90;99.90;;;;;;5017382;28;20362;-78
2022/06/17 05:22:48;;;;;;;;;;;15.90;99.90;;;;;;5032791;28;19978;-78
2022/06/17 05:25:15;;;;;;;;;;;15.90;99.90;;;;;;5050389;28;19917;-79
2022/06/17 05:27:40;;;;;;;;;;;15.90;99.90;;;;;;5037707;28;19917;-78
2022/06/17 05:30:06;;;;;;;;;;;16.00;99.90;;;;;;5035115;28;19948;-78
2022/06/17 05:32:34;;;;;;;;;;;16.00;99.90;;;;;;5035454;28;19967;-79
2022/06/17 05:35:02;;;;;;;;;;;16.10;99.90;;;;;;5053572;28;19925;-78
2022/06/17 05:37:28;;;;;;;;;;;16.10;99.90;;;;;;5010820;28;19921;-80
2022/06/17 05:39:55;;;;;;;;;;;16.20;99.90;;;;;;5033627;28;19924;-79
2022/06/17 05:42:20;;;;;;;;;;;16.20;99.90;;;;;;5054401;28;19917;-78
2022/06/17 05:44:47;;;;;;;;;;;16.30;99.90;;;;;;5068844;28;19963;-79
2022/06/17 05:47:13;;;;;;;;;;;16.40;99.90;;;;;;5036838;28;19917;-78
2022/06/17 05:49:39;;;;;;;;;;;16.50;99.90;;;;;;5008324;28;19916;-78
2022/06/17 05:52:09;;;;;;;;;;;16.50;99.90;;;;;;5037668;28;19917;-80
2022/06/17 05:54:34;;;;;;;;;;;16.70;99.90;;;;;;5019813;28;20297;-79
2022/06/17 05:57:01;;;;;;;;;;;16.70;99.90;;;;;;5036547;28;19921;-79
2022/06/17 05:59:27;;;;;;;;;;;16.80;99.90;;;;;;5036078;28;19916;-77
2022/06/17 06:01:52;;;;;;;;;;;16.90;99.90;;;;;;5051705;28;19917;-79
2022/06/17 06:04:18;;;;;;;;;;;16.90;99.90;;;;;;5023280;28;19917;-78
2022/06/17 06:06:43;;;;;;;;;;;16.90;99.90;;;;;;5015218;28;19943;-78
2022/06/17 06:09:09;;;;;;;;;;;17.10;99.90;;;;;;5052454;28;20360;-79
2022/06/17 06:11:35;;;;;;;;;;;17.10;99.90;;;;;;5023728;28;19982;-78
2022/06/17 06:14:00;;;;;;;;;;;17.10;99.90;;;;;;5037318;28;19927;-79
2022/06/17 06:16:26;;;;;;;;;;;17.20;99.90;;;;;;5036173;28;19916;-80
2022/06/17 06:18:52;;;;;;;;;;;17.20;99.90;;;;;;5044715;28;20086;-79
2022/06/17 06:21:17;;;;;;;;;;;17.30;99.90;;;;;;5035237;28;19917;-79
2022/06/17 06:23:44;;;;;;;;;;;17.30;99.90;;;;;;5034784;28;19923;-78
2022/06/17 06:26:11;;;;;;;;;;;17.40;99.90;;;;;;5021956;28;19925;-78
2022/06/17 06:28:37;;;;;;;;;;;17.40;99.90;;;;;;5033550;28;19916;-78
2022/06/17 06:31:09;;;;;;;;;;;17.40;99.90;;;;;;5036060;28;19939;-79
2022/06/17 06:33:35;;;;;;;;;;;17.50;99.90;;;;;;5034716;28;20289;-78
2022/06/17 06:36:00;;;;;;;;;;;17.60;99.90;;;;;;5035192;28;19924;-78
2022/06/17 06:38:26;;;;;;;;;;;17.70;99.90;;;;;;5021708;28;19917;-79
2022/06/17 06:40:53;;;;;;;;;;;17.80;99.90;;;;;;5034750;28;19916;-79
2022/06/17 06:43:19;;;;;;;;;;;17.90;99.90;;;;;;5019557;28;19921;-78
2022/06/17 06:45:46;;;;;;;;;;;18.00;99.90;;;;;;5042247;28;19920;-77
2022/06/17 06:48:13;;;;;;;;;;;18.20;99.90;;;;;;5021354;28;19917;-79
2022/06/17 06:50:38;;;;;;;;;;;18.40;99.90;;;;;;5036226;28;19978;-78
2022/06/17 06:53:05;;;;;;;;;;;18.50;99.90;;;;;;5032641;28;20328;-77
2022/06/17 06:55:30;;;;;;;;;;;18.70;99.90;;;;;;5020513;28;19967;-78
2022/06/17 06:57:57;;;;;;;;;;;18.80;99.90;;;;;;5016771;28;19917;-80
2022/06/17 07:00:34;;;;;;;;;;;19.00;99.90;;;;;;5041110;28;19967;-79
2022/06/17 07:03:01;;;;;;;;;;;19.10;99.90;;;;;;5020835;28;20457;-79
2022/06/17 07:05:27;;;;;;;;;;;19.20;99.90;;;;;;5018997;28;19962;-79
2022/06/17 07:07:53;;;;;;;;;;;19.30;99.90;;;;;;5034601;28;19960;-79
2022/06/17 07:10:23;;;;;;;;;;;19.40;99.90;;;;;;5021890;28;19998;-78
2022/06/17 07:12:49;;;;;;;;;;;19.40;99.90;;;;;;5039837;28;19928;-78
2022/06/17 07:15:15;;;;;;;;;;;19.40;99.90;;;;;;5054581;28;19920;-77
2022/06/17 07:17:46;;;;;;;;;;;19.40;99.90;;;;;;5007970;28;19929;-79
2022/06/17 07:20:12;;;;;;;;;;;19.40;99.90;;;;;;5046047;28;20442;-77
2022/06/17 07:22:38;;;;;;;;;;;19.50;99.90;;;;;;5023848;28;19967;-79
2022/06/17 07:25:04;;;;;;;;;;;19.60;99.90;;;;;;5060324;28;19952;-78
2022/06/17 07:27:29;;;;;;;;;;;19.70;99.90;;;;;;5052763;28;20326;-79
2022/06/17 07:29:55;;;;;;;;;;;19.80;99.90;;;;;;5013014;28;19917;-78
2022/06/17 07:32:22;;;;;;;;;;;19.90;99.90;;;;;;5028252;28;19964;-78
2022/06/17 07:34:48;;;;;;;;;;;19.90;99.90;;;;;;5030301;28;20374;-78
2022/06/17 07:40:04;;;;;;;;;;;20.10;99.90;;;;;;5036333;28;19956;-79
2022/06/17 07:42:40;;;;;;;;;;;20.30;99.90;;;;;;5028347;28;19956;-78
2022/06/17 07:45:07;;;;;;;;;;;20.40;99.90;;;;;;5020972;28;19921;-78
2022/06/17 07:47:33;;;;;;;;;;;20.70;99.90;;;;;;5033307;28;19920;-79
2022/06/17 07:49:58;;;;;;;;;;;20.90;99.90;;;;;;5018659;28;20431;-78
2022/06/17 07:52:30;;;;;;;;;;;21.10;99.90;;;;;;5046142;28;19943;-78
2022/06/17 07:54:55;;;;;;;;;;;21.20;99.90;;;;;;5034042;28;20012;-79
2022/06/17 07:57:21;;;;;;;;;;;21.30;99.90;;;;;;5021785;28;19928;-80
2022/06/17 07:59:47;;;;;;;;;;;21.40;99.90;;;;;;5047581;28;20297;-79
2022/06/17 08:02:12;;;;;;;;;;;21.40;99.90;;;;;;5048403;28;19917;-79
2022/06/17 08:04:38;;;;;;;;;;;21.50;99.90;;;;;;5046853;28;20386;-79
2022/06/17 08:07:04;;;;;;;;;;;21.50;99.90;;;;;;5031538;28;19917;-79
2022/06/17 08:09:30;;;;;;;;;;;21.60;99.90;;;;;;5047892;28;19998;-79
2022/06/17 08:11:57;;;;;;;;;;;21.70;99.90;;;;;;5047501;28;20397;-80
2022/06/17 08:14:26;;;;;;;;;;;21.80;99.90;;;;;;5046699;28;19921;-79
2022/06/17 08:16:52;;;;;;;;;;;21.90;99.90;;;;;;5015857;28;20002;-78
2022/06/17 08:19:18;;;;;;;;;;;22.00;99.90;;;;;;5050409;28;19917;-80
2022/06/17 08:21:44;;;;;;;;;;;22.10;99.90;;;;;;5042541;28;20344;-78
2022/06/17 08:24:09;;;;;;;;;;;22.20;99.90;;;;;;5060028;28;19999;-79
2022/06/17 08:26:35;;;;;;;;;;;22.30;99.90;;;;;;5022613;28;19924;-79
2022/06/17 08:29:00;;;;;;;;;;;22.30;99.90;;;;;;5035461;28;19917;-79
2022/06/17 08:31:26;;;;;;;;;;;22.40;99.90;;;;;;5032877;28;19920;-79
2022/06/17 08:33:52;;;;;;;;;;;22.50;99.90;;;;;;5033214;28;20006;-78
2022/06/17 08:36:19;;;;;;;;;;;22.60;99.90;;;;;;5033995;28;19921;-79
2022/06/17 08:38:47;;;;;;;;;;;22.70;99.90;;;;;;5033981;28;20484;-79
2022/06/17 08:41:27;;;;;;;;;;;22.90;99.90;;;;;;5049751;28;19917;-78
2022/06/17 08:44:12;;;;;;;;;;;23.00;99.90;;;;;;5014124;28;19966;-78
2022/06/17 08:46:37;;;;;;;;;;;23.00;99.90;;;;;;5048063;28;19917;-78
2022/06/17 08:49:22;;;;;;;;;;;23.00;99.90;;;;;;5040344;28;19924;-78
2022/06/17 08:51:47;;;;;;;;;;;23.00;99.90;;;;;;5052392;28;19923;-78
2022/06/17 08:54:32;;;;;;;;;;;23.00;99.90;;;;;;5034950;28;20361;-79
2022/06/17 08:57:03;;;;;;;;;;;23.00;99.90;;;;;;5003502;28;19929;-77
2022/06/17 08:59:47;;;;;;;;;;;22.90;99.90;;;;;;5034190;28;20388;-79
2022/06/17 09:02:31;;;;;;;;;;;23.00;99.90;;;;;;5038136;28;20266;-78
2022/06/17 09:04:58;;;;;;;;;;;23.00;99.90;;;;;;5022942;28;20393;-78
2022/06/17 09:07:42;;;;;;;;;;;23.00;99.90;;;;;;5027422;28;19975;-79
2022/06/17 09:10:08;;;;;;;;;;;22.90;99.90;;;;;;5054029;28;19923;-80
2022/06/17 09:12:40;;;;;;;;;;;23.00;99.90;;;;;;5037531;28;20024;-79
2022/06/17 09:15:05;;;;;;;;;;;23.20;99.90;;;;;;5036855;28;19947;-79
2022/06/17 09:17:34;;;;;;;;;;;23.20;99.90;;;;;;5020012;28;19916;-78
2022/06/17 09:20:03;;;;;;;;;;;23.30;99.90;;;;;;5036537;28;19921;-79
2022/06/17 09:22:32;;;;;;;;;;;23.30;99.90;;;;;;5011717;28;19966;-78
2022/06/17 09:25:02;;;;;;;;;;;23.40;99.90;;;;;;5030055;28;20692;-78
2022/06/17 09:27:30;;;;;;;;;;;23.40;99.90;;;;;;5036985;28;19962;-77
2022/06/17 09:30:12;;;;;;;;;;;23.50;99.90;;;;;;5039160;28;19917;-78
2022/06/17 09:32:41;;;;;;;;;;;23.50;99.90;;;;;;5029053;28;19996;-77
2022/06/17 09:35:15;;;;;;;;;;;23.40;99.90;;;;;;5036264;28;19921;-76
2022/06/17 09:38:01;;;;;;;;;;;23.40;99.90;;;;;;5036927;28;20282;-78
2022/06/17 09:40:32;;;;;;;;;;;23.50;99.90;;;;;;5023000;28;19916;-79
2022/06/17 09:43:04;;;;;;;;;;;23.90;99.90;;;;;;5025968;28;19987;-78
2022/06/17 09:45:42;;;;;;;;;;;24.40;99.80;;;;;;5053447;28;20548;-77
2022/06/17 09:48:13;;;;;;;;;;;24.80;98.50;;;;;;5042352;28;20008;-78
2022/06/17 09:50:58;;;;;;;;;;;25.10;97.70;;;;;;5019490;28;19917;-82
2022/06/17 09:53:32;;;;;;;;;;;25.00;94.50;;;;;;5042268;28;20312;-79
2022/06/17 09:56:13;;;;;;;;;;;24.80;95.80;;;;;;5054276;28;19920;-80
2022/06/17 09:58:44;;;;;;;;;;;24.70;95.20;;;;;;5037831;28;19920;-80
2022/06/17 10:01:10;;;;;;;;;;;24.50;95.10;;;;;;5051576;28;19964;-79
2022/06/17 10:03:38;;;;;;;;;;;24.20;94.80;;;;;;5044738;28;19917;-79
2022/06/17 10:06:04;;;;;;;;;;;24.10;94.70;;;;;;5017273;28;19917;-77
2022/06/17 10:08:29;;;;;;;;;;;24.10;95.80;;;;;;5036463;28;19928;-78
2022/06/17 10:11:10;;;;;;;;;;;24.10;96.20;;;;;;5020945;28;19921;-79
2022/06/17 10:13:47;;;;;;;;;;;24.10;96.50;;;;;;5037561;28;19921;-78
2022/06/17 10:19:22;;;;;;;;;;;24.10;96.30;;;;;;5053936;28;19917;-79
2022/06/17 10:21:47;;;;;;;;;;;24.10;97.20;;;;;;5035964;28;19938;-78
2022/06/17 10:24:29;;;;;;;;;;;24.10;96.10;;;;;;5054710;28;19916;-79
2022/06/17 10:27:04;;;;;;;;;;;24.00;95.80;;;;;;5069162;28;20365;-78
2022/06/17 10:29:45;;;;;;;;;;;24.00;96.50;;;;;;5036227;28;19928;-78
2022/06/17 10:32:11;;;;;;;;;;;24.00;95.90;;;;;;5035560;28;19917;-77
2022/06/17 10:34:52;;;;;;;;;;;24.00;95.10;;;;;;5053160;28;19974;-78
2022/06/17 10:37:17;;;;;;;;;;;24.00;96.40;;;;;;5036683;28;19916;-78
2022/06/17 10:39:43;;;;;;;;;;;24.10;96.40;;;;;;5021745;28;20281;-77
2022/06/17 10:42:11;;;;;;;;;;;24.40;95.50;;;;;;5016339;28;20326;-79
2022/06/17 10:44:37;;;;;;;;;;;24.50;95.50;;;;;;5013174;28;19917;-77
2022/06/17 10:47:21;;;;;;;;;;;24.60;94.80;;;;;;5030492;28;19928;-79
2022/06/17 10:49:53;;;;;;;;;;;24.80;95.10;;;;;;5030259;28;19971;-78
2022/06/17 10:52:20;;;;;;;;;;;25.10;94.50;;;;;;5028271;28;19951;-78
2022/06/17 10:54:47;;;;;;;;;;;25.40;94.30;;;;;;5063977;28;19967;-79
2022/06/17 10:57:37;;;;;;;;;;;25.60;93.60;;;;;;5049010;28;19967;-80
2022/06/17 11:00:21;;;;;;;;;;;25.80;93.00;;;;;;5001622;28;19917;-79
2022/06/17 11:02:47;;;;;;;;;;;25.90;93.20;;;;;;5030111;28;20000;-78
2022/06/17 11:05:27;;;;;;;;;;;26.00;91.80;;;;;;5035669;28;19995;-80
2022/06/17 11:07:53;;;;;;;;;;;26.00;91.20;;;;;;5035447;28;20273;-79
2022/06/17 11:10:21;;;;;;;;;;;26.00;91.10;;;;;;5019231;28;20294;-79
2022/06/17 11:12:54;;;;;;;;;;;26.10;91.60;;;;;;5034407;28;19917;-79
2022/06/17 11:15:26;;;;;;;;;;;26.20;90.60;;;;;;5035022;28;19924;-79
2022/06/17 11:17:52;;;;;;;;;;;26.10;87.60;;;;;;5030694;28;20006;-79
2022/06/17 11:20:26;;;;;;;;;;;25.90;88.90;;;;;;5049059;28;19927;-79
2022/06/17 11:23:12;;;;;;;;;;;25.90;86.80;;;;;;5050752;28;19916;-78
2022/06/17 11:25:40;;;;;;;;;;;25.80;88.20;;;;;;5002013;28;19917;-78
2022/06/17 11:28:12;;;;;;;;;;;25.90;90.00;;;;;;5033698;28;19946;-78
2022/06/17 11:30:58;;;;;;;;;;;26.00;88.40;;;;;;5035719;28;19982;-78
2022/06/17 11:33:41;;;;;;;;;;;26.20;89.60;;;;;;5051730;28;19925;-79
2022/06/17 11:36:18;;;;;;;;;;;26.40;88.10;;;;;;5033943;28;20276;-79
2022/06/17 11:38:44;;;;;;;;;;;26.50;89.30;;;;;;5052731;28;19920;-79
2022/06/17 11:41:10;;;;;;;;;;;26.70;88.30;;;;;;5034461;28;19928;-79
2022/06/17 11:43:43;;;;;;;;;;;26.90;86.90;;;;;;5032241;28;19916;-79
2022/06/17 11:46:13;;;;;;;;;;;27.00;86.00;;;;;;5034016;28;20271;-77
2022/06/17 11:48:44;;;;;;;;;;;27.20;87.70;;;;;;5021714;28;19917;-78
2022/06/17 11:51:17;;;;;;;;;;;27.40;85.40;;;;;;5015444;28;19921;-78
2022/06/17 11:53:48;;;;;;;;;;;27.60;86.60;;;;;;4998674;28;19921;-78
2022/06/17 11:56:33;;;;;;;;;;;28.00;85.90;;;;;;5050229;28;19921;-78
2022/06/17 11:59:01;;;;;;;;;;;28.40;84.70;;;;;;5022470;28;20278;-80
2022/06/17 12:01:33;;;;;;;;;;;28.70;83.20;;;;;;5019974;28;19916;-78
2022/06/17 12:03:59;;;;;;;;;;;28.70;79.40;;;;;;5056334;28;19920;-78
2022/06/17 12:06:27;;;;;;;;;;;28.60;78.40;;;;;;5029399;28;19928;-79
2022/06/17 12:08:55;;;;;;;;;;;28.60;80.10;;;;;;5014749;28;19916;-78
2022/06/17 12:11:41;;;;;;;;;;;28.70;77.90;;;;;;5052933;28;20275;-77
2022/06/17 12:14:13;;;;;;;;;;;28.90;78.10;;;;;;5012045;28;20282;-78
2022/06/17 12:16:43;;;;;;;;;;;28.80;76.90;;;;;;5060315;28;20278;-79
2022/06/17 12:19:17;;;;;;;;;;;28.90;78.60;;;;;;5037127;28;19921;-77
2022/06/17 12:21:57;;;;;;;;;;;28.90;77.30;;;;;;5064014;28;20231;-79
2022/06/17 12:24:43;;;;;;;;;;;29.00;77.60;;;;;;5016914;28;19925;-78
2022/06/17 12:27:18;;;;;;;;;;;29.10;74.90;;;;;;5000457;28;19975;-78
2022/06/17 12:30:01;;;;;;;;;;;29.30;75.70;;;;;;5047212;28;20000;-79
2022/06/17 12:32:29;;;;;;;;;;;29.30;73.30;;;;;;5009583;28;19960;-79
2022/06/17 12:35:14;;;;;;;;;;;29.20;70.30;;;;;;5018827;28;19921;-79
2022/06/17 12:37:47;;;;;;;;;;;29.20;72.00;;;;;;5036432;28;19924;-78
2022/06/17 12:40:17;;;;;;;;;;;29.20;71.50;;;;;;5061384;28;19979;-77
2022/06/17 12:42:49;;;;;;;;;;;29.20;70.00;;;;;;5034378;28;20273;-79
2022/06/17 12:45:27;;;;;;;;;;;29.20;68.30;;;;;;5021135;28;19960;-79
2022/06/17 12:48:11;;;;;;;;;;;29.20;71.10;;;;;;5029617;28;20285;-79
2022/06/17 12:53:37;;;;;;;;;;;29.30;67.40;;;;;;5008916;28;20023;-79
2022/06/17 12:56:05;;;;;;;;;;;29.20;68.10;;;;;;5034983;28;20412;-79
2022/06/17 12:58:50;;;;;;;;;;;29.20;70.20;;;;;;5013486;28;20004;-79
2022/06/17 13:01:28;;;;;;;;;;;29.10;69.60;;;;;;5028356;28;19948;-77
2022/06/17 13:03:53;;;;;;;;;;;29.00;69.50;;;;;;5032831;28;19923;-79
2022/06/17 13:06:40;;;;;;;;;;;28.80;68.60;;;;;;5032097;28;19999;-79
2022/06/17 13:09:25;;;;;;;;;;;28.60;69.90;;;;;;5046982;28;19928;-80
2022/06/17 13:12:07;;;;;;;;;;;28.40;69.60;;;;;;5019670;28;19916;-79
2022/06/17 13:14:41;;;;;;;;;;;28.10;69.80;;;;;;5016754;28;19920;-79
2022/06/17 13:17:26;;;;;;;;;;;28.00;70.90;;;;;;5025810;28;19917;-78
2022/06/17 13:20:10;;;;;;;;;;;27.70;69.80;;;;;;5029725;28;19971;-79
2022/06/17 13:22:42;;;;;;;;;;;27.60;71.10;;;;;;5047102;28;19917;-79
2022/06/17 13:25:08;;;;;;;;;;;27.50;71.70;;;;;;5053606;28;19917;-79
2022/06/17 13:27:50;;;;;;;;;;;27.60;71.60;;;;;;5027719;28;19924;-78
2022/06/17 13:30:24;;;;;;;;;;;27.60;70.90;;;;;;5044078;28;19917;-78
2022/06/17 13:33:09;;;;;;;;;;;27.60;71.30;;;;;;5032200;28;19917;-78
2022/06/17 13:35:37;;;;;;;;;;;27.70;71.20;;;;;;5001567;28;20092;-80
2022/06/17 13:38:21;;;;;;;;;;;27.80;71.30;;;;;;5048944;28;20382;-78
2022/06/17 13:40:49;;;;;;;;;;;27.90;70.40;;;;;;5012174;28;19917;-78
2022/06/17 13:43:22;;;;;;;;;;;28.00;70.60;;;;;;5030732;28;19917;-79
2022/06/17 13:46:06;;;;;;;;;;;28.20;71.10;;;;;;5022574;28;19917;-78
2022/06/17 13:48:43;;;;;;;;;;;28.40;71.40;;;;;;5020346;28;19952;-79
2022/06/17 13:51:19;;;;;;;;;;;28.70;70.50;;;;;;5016543;28;19917;-79
2022/06/17 13:53:54;;;;;;;;;;;28.80;68.30;;;;;;5036945;28;19924;-79
2022/06/17 13:56:37;;;;;;;;;;;29.10;70.50;;;;;;5023056;28;20024;-77
2022/06/17 13:59:05;;;;;;;;;;;29.40;68.20;;;;;;5036343;28;19956;-78
2022/06/17 14:01:32;;;;;;;;;;;30.00;69.70;;;;;;5052892;28;19927;-78
2022/06/17 14:04:06;;;;;;;;;;;30.60;64.40;;;;;;5056825;28;19923;-79
2022/06/17 14:06:53;;;;;;;;;;;31.10;67.80;;;;;;5055715;28;19917;-78
2022/06/17 14:09:25;;;;;;;;;;;31.50;63.10;;;;;;5019795;28;19986;-79
2022/06/17 14:11:51;;;;;;;;;;;31.50;62.90;;;;;;5023015;28;19923;-79
2022/06/17 14:14:17;;;;;;;;;;;31.10;62.00;;;;;;5035911;28;19960;-77
2022/06/17 14:16:43;;;;;;;;;;;30.80;63.30;;;;;;5050425;28;19956;-78
2022/06/17 14:19:14;;;;;;;;;;;30.70;64.30;;;;;;5049350;28;19927;-79
2022/06/17 14:21:52;;;;;;;;;;;31.00;64.20;;;;;;5034229;28;19925;-79
2022/06/17 14:24:37;;;;;;;;;;;31.50;65.10;;;;;;5026355;28;19923;-78
2022/06/17 14:27:02;;;;;;;;;;;31.60;60.50;;;;;;5034121;28;19916;-81
2022/06/17 14:29:32;;;;;;;;;;;31.70;61.20;;;;;;5036061;28;19923;-79
2022/06/17 14:32:03;;;;;;;;;;;31.60;61.00;;;;;;5035907;28;19952;-79
2022/06/17 14:34:41;;;;;;;;;;;31.50;60.50;;;;;;5035412;28;20274;-79
2022/06/17 14:37:11;;;;;;;;;;;31.50;60.90;;;;;;5019302;28;19924;-79
2022/06/17 14:39:40;;;;;;;;;;;31.80;60.30;;;;;;5069245;28;20378;-78
2022/06/17 14:42:17;;;;;;;;;;;31.90;59.50;;;;;;5018296;28;19936;-78
2022/06/17 14:45:03;;;;;;;;;;;31.80;58.80;;;;;;5049048;28;19928;-79
2022/06/17 14:47:43;;;;;;;;;;;31.90;59.30;;;;;;4982737;28;19963;-78